Time;durP1;ratioP1;P1;durP2;ratioP2;P2;SDS_P1;SDS_P2;PMS_P1;PMS_P2;Temp;Humidity;BMP_temperature;BMP_pressure;BME280_temperature;BME280_humidity;BME280_pressure;Samples;Min_cycle;Max_cycle;Signal;HPM_P1;HPM_P2
2024/01/11 00:01:38;;;;;;;32.93;16.97;;;;;;;-6.32;100.00;101362.03;5050101;28;20244;-62
2024/01/11 00:04:03;;;;;;;25.33;15.73;;;;;;;-6.34;100.00;101361.16;5037530;28;20745;-62
2024/01/11 00:06:29;;;;;;;32.20;16.37;;;;;;;-6.37;100.00;101365.22;5032410;28;20174;-62
2024/01/11 00:08:54;;;;;;;28.70;17.10;;;;;;;-6.35;100.00;101359.44;5030979;28;20536;-62
2024/01/11 00:11:19;;;;;;;30.27;16.53;;;;;;;-6.40;100.00;101358.44;5042795;28;20228;-62
2024/01/11 00:13:44;;;;;;;25.67;15.03;;;;;;;-6.39;100.00;101355.13;5043812;28;20182;-62
2024/01/11 00:16:10;;;;;;;28.77;15.70;;;;;;;-6.49;100.00;101365.63;5031229;28;20294;-62
2024/01/11 00:18:35;;;;;;;31.13;16.33;;;;;;;-6.43;100.00;101368.34;5032232;28;20186;-62
2024/01/11 00:21:00;;;;;;;33.60;16.63;;;;;;;-6.44;100.00;101366.63;5031853;28;20232;-62
2024/01/11 00:23:26;;;;;;;36.93;17.37;;;;;;;-6.43;100.00;101357.47;5038992;28;20182;-63
2024/01/11 00:25:51;;;;;;;31.33;15.40;;;;;;;-6.43;100.00;101357.47;5032359;28;20252;-63
2024/01/11 00:28:16;;;;;;;31.60;16.33;;;;;;;-6.46;100.00;101362.38;5032225;28;20204;-63
2024/01/11 00:30:41;;;;;;;27.83;15.63;;;;;;;-6.45;100.00;101362.41;5009595;28;20668;-65
2024/01/11 00:33:07;;;;;;;31.63;16.40;;;;;;;-6.50;100.00;101368.91;5035739;28;20182;-62
2024/01/11 00:35:32;;;;;;;24.87;14.67;;;;;;;-6.46;100.00;101369.88;5030589;28;20540;-62
2024/01/11 00:37:57;;;;;;;31.10;16.07;;;;;;;-6.46;100.00;101372.38;5031779;28;20189;-62
2024/01/11 00:40:22;;;;;;;34.13;15.43;;;;;;;-6.61;100.00;101373.56;5025850;28;20621;-62
2024/01/11 00:42:48;;;;;;;34.97;15.43;;;;;;;-6.62;100.00;101373.47;5043335;28;20202;-61
2024/01/11 00:45:14;;;;;;;33.93;15.87;;;;;;;-6.57;100.00;101382.00;5031253;28;20222;-62
2024/01/11 00:47:39;;;;;;;30.13;14.80;;;;;;;-6.69;100.00;101380.75;5031747;28;20181;-61
2024/01/11 00:50:05;;;;;;;29.97;15.50;;;;;;;-6.62;100.00;101383.50;5026097;28;20251;-62
2024/01/11 00:52:31;;;;;;;33.30;16.53;;;;;;;-6.66;100.00;101385.91;5061769;28;20566;-62
2024/01/11 00:54:56;;;;;;;30.07;15.27;;;;;;;-6.63;100.00;101380.16;5030480;28;20591;-62
2024/01/11 00:57:22;;;;;;;34.70;16.07;;;;;;;-6.61;100.00;101387.69;5030405;28;20319;-62
2024/01/11 00:59:47;;;;;;;35.40;15.57;;;;;;;-6.60;100.00;101384.41;5033017;28;20275;-62
2024/01/11 01:02:12;;;;;;;37.43;18.17;;;;;;;-6.61;100.00;101386.06;5059867;28;20223;-61
2024/01/11 01:04:39;;;;;;;37.03;16.60;;;;;;;-6.61;100.00;101387.69;5031756;28;20190;-61
2024/01/11 01:07:04;;;;;;;35.17;16.03;;;;;;;-6.60;100.00;101386.91;5029941;28;20702;-62
2024/01/11 01:09:30;;;;;;;28.93;15.40;;;;;;;-6.63;100.00;101385.16;5031474;28;20497;-62
2024/01/11 01:11:55;;;;;;;40.90;17.10;;;;;;;-6.70;100.00;101389.09;5051073;28;20225;-61
2024/01/11 01:14:21;;;;;;;32.17;15.30;;;;;;;-6.67;100.00;101389.19;5032887;28;20482;-62
2024/01/11 01:16:46;;;;;;;33.43;16.10;;;;;;;-6.66;100.00;101395.03;5031001;28;20190;-62
2024/01/11 01:19:11;;;;;;;30.23;15.00;;;;;;;-6.68;100.00;101391.66;5029802;28;20185;-62
2024/01/11 01:21:36;;;;;;;31.33;15.53;;;;;;;-6.70;100.00;101384.09;5045608;28;20227;-62
2024/01/11 01:24:02;;;;;;;26.20;15.13;;;;;;;-6.70;100.00;101384.09;5038340;28;20177;-62
2024/01/11 01:26:27;;;;;;;28.33;14.50;;;;;;;-6.72;100.00;101384.78;5029729;28;20265;-61
2024/01/11 01:28:53;;;;;;;36.27;15.67;;;;;;;-6.77;100.00;101386.28;5030938;28;20170;-62
2024/01/11 01:31:18;;;;;;;29.40;15.83;;;;;;;-6.75;100.00;101382.19;5041101;28;20236;-61
2024/01/11 01:33:43;;;;;;;30.10;16.10;;;;;;;-6.81;100.00;101377.81;5035100;28;20174;-61
2024/01/11 01:36:10;;;;;;;25.70;14.63;;;;;;;-6.85;100.00;101388.50;5027413;28;20190;-61
2024/01/11 01:38:35;;;;;;;31.37;14.87;;;;;;;-6.89;100.00;101392.53;5029992;28;20236;-61
2024/01/11 01:41:00;;;;;;;27.17;14.37;;;;;;;-6.81;100.00;101397.81;5036472;28;21111;-61
2024/01/11 01:43:26;;;;;;;27.73;14.93;;;;;;;-6.84;100.00;101397.72;5047115;28;20206;-62
2024/01/11 01:45:51;;;;;;;27.83;14.90;;;;;;;-6.86;100.00;101395.16;5030950;28;20356;-64
2024/01/11 01:48:17;;;;;;;30.00;14.20;;;;;;;-6.85;100.00;101391.00;5031345;28;20182;-62
2024/01/11 01:50:45;;;;;;;25.77;13.93;;;;;;;-6.83;100.00;101399.44;5031356;28;20283;-64
2024/01/11 01:53:10;;;;;;;27.20;14.70;;;;;;;-6.90;100.00;101400.00;5051194;28;20586;-61
2024/01/11 01:55:36;;;;;;;31.30;15.20;;;;;;;-6.87;100.00;101397.59;5031096;28;20435;-61
2024/01/11 01:58:03;;;;;;;32.40;15.40;;;;;;;-6.92;100.00;101397.44;5031208;28;20528;-62
2024/01/11 02:00:29;;;;;;;29.00;15.60;;;;;;;-6.86;100.00;101400.19;5020514;28;20724;-61
2024/01/11 02:02:55;;;;;;;27.57;16.07;;;;;;;-6.83;100.00;101400.28;5055413;28;20435;-61
2024/01/11 02:05:20;;;;;;;26.30;14.30;;;;;;;-6.84;100.00;101413.56;5031055;28;20206;-60
2024/01/11 02:07:46;;;;;;;25.57;14.37;;;;;;;-6.89;100.00;101405.03;5031129;28;20441;-61
2024/01/11 02:10:12;;;;;;;31.90;14.83;;;;;;;-7.00;100.00;101411.28;5023151;28;20252;-63
2024/01/11 02:12:38;;;;;;;28.03;15.23;;;;;;;-6.93;100.00;101395.72;5059598;28;20178;-62
2024/01/11 02:15:03;;;;;;;31.70;16.00;;;;;;;-7.07;100.00;101402.72;5030654;28;20418;-61
2024/01/11 02:17:30;;;;;;;27.33;13.97;;;;;;;-7.03;100.00;101409.53;5030964;28;20189;-62
2024/01/11 02:19:55;;;;;;;30.77;16.43;;;;;;;-6.97;100.00;101418.91;5031094;28;20213;-61
2024/01/11 02:22:29;;;;;;;26.60;14.57;;;;;;;-7.04;100.00;101411.97;5051396;28;20484;-62
2024/01/11 02:24:55;;;;;;;33.00;15.10;;;;;;;-7.07;100.00;101414.34;5029198;28;20182;-62
2024/01/11 02:27:21;;;;;;;28.33;15.23;;;;;;;-7.09;100.00;101413.44;5031901;28;20792;-62
2024/01/11 02:29:46;;;;;;;26.57;15.20;;;;;;;-7.04;100.00;101419.47;5034432;28;20665;-62
2024/01/11 02:32:12;;;;;;;29.00;14.77;;;;;;;-7.07;100.00;101412.72;5041343;28;20224;-62
2024/01/11 02:34:37;;;;;;;29.67;15.00;;;;;;;-7.06;100.00;101418.56;5032993;28;20555;-62
2024/01/11 02:37:04;;;;;;;25.83;14.37;;;;;;;-7.08;100.00;101425.13;5034383;28;20220;-62
2024/01/11 02:39:29;;;;;;;26.63;15.10;;;;;;;-7.10;100.00;101414.25;5034418;28;20302;-61
2024/01/11 02:41:57;;;;;;;25.97;14.50;;;;;;;-7.12;100.00;101424.16;5040957;28;20574;-62
2024/01/11 02:44:22;;;;;;;29.93;15.23;;;;;;;-7.10;100.00;101424.25;5033267;28;20719;-61
2024/01/11 02:46:48;;;;;;;28.67;14.63;;;;;;;-7.21;100.00;101422.16;5034153;28;20459;-61
2024/01/11 02:49:13;;;;;;;32.10;15.07;;;;;;;-7.23;100.00;101421.25;5037370;28;20197;-61
2024/01/11 02:51:39;;;;;;;28.17;14.57;;;;;;;-7.22;100.00;101419.59;5027210;28;20611;-61
2024/01/11 02:54:04;;;;;;;26.77;14.87;;;;;;;-7.18;100.00;101416.41;5039831;28;20227;-61
2024/01/11 02:56:30;;;;;;;28.87;15.53;;;;;;;-7.16;100.00;101420.69;5032670;28;20185;-61
2024/01/11 02:58:55;;;;;;;29.50;16.17;;;;;;;-7.19;100.00;101418.09;5065442;28;20181;-61
2024/01/11 03:01:20;;;;;;;25.87;13.77;;;;;;;-7.19;100.00;101410.56;5044637;28;20236;-64
2024/01/11 03:03:46;;;;;;;27.87;14.43;;;;;;;-7.21;100.00;101412.16;5044585;28;20189;-61
2024/01/11 03:06:11;;;;;;;25.10;14.27;;;;;;;-7.26;100.00;101413.63;5033923;28;20281;-63
2024/01/11 03:08:36;;;;;;;26.20;15.47;;;;;;;-7.26;100.00;101415.28;5034057;28;20213;-63
2024/01/11 03:11:02;;;;;;;26.63;15.77;;;;;;;-7.28;100.00;101405.22;5039299;28;20271;-61
2024/01/11 03:13:27;;;;;;;32.67;16.33;;;;;;;-7.24;100.00;101398.69;5048007;28;20181;-62
2024/01/11 03:15:52;;;;;;;28.40;15.90;;;;;;;-7.25;100.00;101409.50;5021737;28;20207;-61
2024/01/11 03:18:17;;;;;;;28.97;15.40;;;;;;;-7.30;100.00;101400.16;5033561;28;20220;-62
2024/01/11 03:20:43;;;;;;;37.50;15.73;;;;;;;-7.30;100.00;101395.16;5034468;28;20221;-62
2024/01/11 03:23:08;;;;;;;31.57;16.63;;;;;;;-7.32;100.00;101396.75;5054017;28;20186;-61
2024/01/11 03:25:33;;;;;;;29.57;15.97;;;;;;;-7.32;100.00;101391.75;5033733;28;20177;-62
2024/01/11 03:27:59;;;;;;;26.33;15.50;;;;;;;-7.31;100.00;101390.09;5033150;28;20191;-61
2024/01/11 03:30:24;;;;;;;29.60;15.10;;;;;;;-7.33;100.00;101395.03;5027852;28;20232;-61
2024/01/11 03:32:50;;;;;;;28.83;15.30;;;;;;;-7.38;100.00;101393.13;5044831;28;20189;-61
2024/01/11 03:35:15;;;;;;;30.90;16.00;;;;;;;-7.43;100.00;101382.94;5033495;28;20190;-61
2024/01/11 03:37:41;;;;;;;31.27;14.33;;;;;;;-7.44;100.00;101388.78;5030628;28;20193;-62
2024/01/11 03:40:06;;;;;;;32.47;16.03;;;;;;;-7.49;100.00;101390.19;5024334;28;20669;-62
2024/01/11 03:42:32;;;;;;;29.47;15.40;;;;;;;-7.42;100.00;101386.31;5047042;28;20182;-63
2024/01/11 03:44:57;;;;;;;29.90;16.57;;;;;;;-7.46;100.00;101387.84;5032814;28;20309;-61
2024/01/11 03:47:22;;;;;;;26.23;15.67;;;;;;;-7.46;100.00;101388.69;5031996;28;20178;-61
2024/01/11 03:49:48;;;;;;;29.03;15.37;;;;;;;-7.51;100.00;101387.66;5036927;28;20244;-61
2024/01/11 03:52:13;;;;;;;30.07;15.97;;;;;;;-7.49;100.00;101382.72;5039399;28;20280;-62
2024/01/11 03:54:38;;;;;;;31.37;17.10;;;;;;;-7.47;100.00;101379.50;5032988;28;20182;-61
2024/01/11 03:57:04;;;;;;;31.37;17.10;;;;;;;-7.57;100.00;101376.56;5032687;28;20178;-61
2024/01/11 03:59:29;;;;;;;35.23;17.20;;;;;;;-7.53;100.00;101383.38;5032559;28;20671;-61
2024/01/11 04:01:56;;;;;;;30.30;16.27;;;;;;;-7.54;100.00;101387.53;5052173;28;20231;-61
2024/01/11 04:04:22;;;;;;;32.53;16.37;;;;;;;-7.51;100.00;101379.31;5034138;28;20194;-61
2024/01/11 04:06:48;;;;;;;32.03;17.03;;;;;;;-7.43;100.00;101379.59;5032401;28;20417;-62
2024/01/11 04:09:13;;;;;;;31.57;16.67;;;;;;;-7.46;100.00;101387.84;5032697;28;20784;-61
2024/01/11 04:11:38;;;;;;;30.03;16.47;;;;;;;-7.51;100.00;101395.16;5037179;28;20227;-64
2024/01/11 04:14:04;;;;;;;32.67;17.30;;;;;;;-7.52;100.00;101403.44;5039134;28;20275;-61
2024/01/11 04:16:29;;;;;;;32.03;16.47;;;;;;;-7.54;100.00;101395.03;5032542;28;20178;-62
2024/01/11 04:18:54;;;;;;;30.67;16.27;;;;;;;-7.56;100.00;101406.63;5032326;28;20258;-61
2024/01/11 04:21:24;;;;;;;34.40;15.37;;;;;;;-7.48;100.00;101396.91;5042916;28;20397;-61
2024/01/11 04:23:50;;;;;;;34.33;17.20;;;;;;;-7.55;100.00;101403.31;5029557;28;20224;-61
2024/01/11 04:26:15;;;;;;;30.87;16.70;;;;;;;-7.60;100.00;101401.41;5032316;28;20858;-61
2024/01/11 04:28:40;;;;;;;31.97;16.83;;;;;;;-7.57;100.00;101407.41;5032150;28;20217;-61
2024/01/11 04:31:08;;;;;;;34.83;18.17;;;;;;;-7.60;100.00;101402.28;5017312;28;20631;-62
2024/01/11 04:33:33;;;;;;;29.13;16.83;;;;;;;-7.54;100.00;101405.03;5046938;28;20182;-62
2024/01/11 04:35:58;;;;;;;33.30;16.10;;;;;;;-7.56;100.00;101406.63;5032062;28;20420;-61
2024/01/11 04:38:23;;;;;;;31.13;16.53;;;;;;;-7.56;100.00;101409.13;5063869;28;20641;-61
2024/01/11 04:40:49;;;;;;;34.43;16.30;;;;;;;-7.54;100.00;101419.16;5029665;28;20302;-61
2024/01/11 04:43:14;;;;;;;28.30;16.73;;;;;;;-7.60;100.00;101422.28;5040098;28;20208;-61
2024/01/11 04:45:40;;;;;;;30.20;16.43;;;;;;;-7.59;100.00;101411.50;5031893;28;20220;-62
2024/01/11 04:48:05;;;;;;;29.40;16.27;;;;;;;-7.61;100.00;101410.56;5030705;28;20208;-61
2024/01/11 04:50:30;;;;;;;30.67;17.00;;;;;;;-7.64;100.00;101412.94;5030590;28;20233;-62
2024/01/11 04:52:56;;;;;;;32.23;17.23;;;;;;;-7.62;100.00;101403.88;5055075;28;20213;-61
2024/01/11 04:55:21;;;;;;;28.80;17.30;;;;;;;-7.64;100.00;101396.31;5030592;28;20642;-61
2024/01/11 04:57:46;;;;;;;31.60;16.07;;;;;;;-7.65;100.00;101402.09;5031233;28;20185;-62
2024/01/11 05:00:12;;;;;;;34.10;17.27;;;;;;;-7.72;100.00;101399.28;5024250;28;20184;-62
2024/01/11 05:02:37;;;;;;;33.90;16.83;;;;;;;-7.66;100.00;101407.88;5044735;28;20192;-62
2024/01/11 05:05:03;;;;;;;28.60;16.50;;;;;;;-7.67;100.00;101408.66;5063552;28;20660;-61
2024/01/11 05:07:28;;;;;;;32.60;17.53;;;;;;;-7.71;100.00;101416.00;5030220;28;20290;-62
2024/01/11 05:09:54;;;;;;;32.70;16.47;;;;;;;-7.74;100.00;101424.19;5063410;28;20200;-62
2024/01/11 05:12:19;;;;;;;31.60;16.93;;;;;;;-7.74;100.00;101428.34;5052826;28;20707;-61
2024/01/11 05:14:44;;;;;;;30.23;17.10;;;;;;;-7.74;100.00;101425.84;5031507;28;20189;-62
2024/01/11 05:17:09;;;;;;;31.30;16.73;;;;;;;-7.71;100.00;101424.34;5031552;28;20189;-61
2024/01/11 05:19:35;;;;;;;31.43;17.30;;;;;;;-7.74;100.00;101424.19;5030247;28;20652;-62
2024/01/11 05:22:00;;;;;;;30.30;16.17;;;;;;;-7.70;100.00;101418.56;5052194;28;20219;-61
2024/01/11 05:24:25;;;;;;;37.50;18.53;;;;;;;-7.76;100.00;101410.81;5032095;28;20228;-61
2024/01/11 05:26:51;;;;;;;27.37;16.87;;;;;;;-7.83;100.00;101432.16;5029589;28;20272;-61
2024/01/11 05:29:16;;;;;;;32.67;17.10;;;;;;;-7.84;100.00;101432.97;5030095;28;20550;-61
2024/01/11 05:31:41;;;;;;;33.23;16.53;;;;;;;-7.89;100.00;101434.41;5047082;28;20265;-62
2024/01/11 05:34:06;;;;;;;33.73;17.07;;;;;;;-7.87;100.00;101439.47;5036916;28;20191;-61
2024/01/11 05:36:32;;;;;;;28.00;15.13;;;;;;;-7.92;100.00;101436.78;5031294;28;20176;-62
2024/01/11 05:38:57;;;;;;;31.00;16.87;;;;;;;-7.92;100.00;101431.78;5031360;28;20656;-61
2024/01/11 05:41:22;;;;;;;33.53;16.67;;;;;;;-7.97;100.00;101434.06;5041546;28;20222;-62
2024/01/11 05:43:48;;;;;;;27.53;15.37;;;;;;;-8.00;100.00;101438.97;5041548;28;20552;-61
2024/01/11 05:46:13;;;;;;;27.70;15.90;;;;;;;-7.96;100.00;101428.28;5063124;28;20237;-60
2024/01/11 05:48:38;;;;;;;28.40;16.00;;;;;;;-7.97;100.00;101430.75;5033821;28;20199;-60
2024/01/11 05:51:04;;;;;;;30.47;15.97;;;;;;;-8.00;100.00;101430.59;5025407;28;20231;-61
2024/01/11 05:53:29;;;;;;;29.23;16.57;;;;;;;-8.01;100.00;101431.38;5046363;28;20184;-61
2024/01/11 05:55:54;;;;;;;35.53;16.10;;;;;;;-8.01;100.00;101434.75;5029635;28;20203;-61
2024/01/11 05:58:20;;;;;;;30.73;16.37;;;;;;;-7.99;100.00;101440.66;5031423;28;20544;-61
2024/01/11 06:00:45;;;;;;;36.73;18.97;;;;;;;-7.99;100.00;101443.16;5031322;28;20264;-61
2024/01/11 06:03:15;;;;;;;33.37;18.50;;;;;;;-8.00;100.00;101453.06;5044045;28;20226;-61
2024/01/11 06:05:40;;;;;;;30.03;17.07;;;;;;;-7.96;100.00;101445.78;5034595;28;20173;-61
2024/01/11 06:08:05;;;;;;;34.07;16.87;;;;;;;-7.94;100.00;101453.34;5035242;28;20473;-61
2024/01/11 06:10:31;;;;;;;28.13;15.37;;;;;;;-7.93;100.00;101454.22;5031804;28;20336;-61
2024/01/11 06:12:56;;;;;;;33.47;18.47;;;;;;;-8.00;100.00;101455.56;5045708;28;20735;-61
2024/01/11 06:15:21;;;;;;;36.53;18.37;;;;;;;-8.00;100.00;101463.06;5033560;28;20698;-62
2024/01/11 06:17:47;;;;;;;30.87;16.97;;;;;;;-8.10;100.00;101464.31;5035149;28;20196;-61
2024/01/11 06:20:12;;;;;;;29.57;15.97;;;;;;;-8.06;100.00;101467.78;5059057;28;20172;-62
2024/01/11 06:22:37;;;;;;;33.87;17.70;;;;;;;-8.02;100.00;101475.50;5048142;28;20274;-61
2024/01/11 06:25:03;;;;;;;32.50;17.33;;;;;;;-8.03;100.00;101478.78;5034281;28;20181;-61
2024/01/11 06:27:29;;;;;;;32.23;16.37;;;;;;;-8.03;100.00;101483.75;5034866;28;20200;-61
2024/01/11 06:29:54;;;;;;;33.17;16.53;;;;;;;-8.03;100.00;101493.75;5034316;28;20471;-61
2024/01/11 06:32:19;;;;;;;31.17;16.83;;;;;;;-8.04;100.00;101501.19;5055918;28;20227;-61
2024/01/11 06:34:45;;;;;;;31.63;17.50;;;;;;;-8.05;100.00;101501.97;5034126;28;20643;-61
2024/01/11 06:37:11;;;;;;;32.67;14.87;;;;;;;-8.07;100.00;101501.91;5034604;28;20176;-61
2024/01/11 06:39:37;;;;;;;31.97;18.67;;;;;;;-8.08;100.00;101516.81;5032998;28;20771;-62
2024/01/11 06:42:02;;;;;;;32.97;16.33;;;;;;;-8.12;100.00;101509.19;5055900;28;20231;-62
2024/01/11 06:44:27;;;;;;;36.30;17.40;;;;;;;-8.09;100.00;101498.47;5032654;28;20200;-61
2024/01/11 06:46:53;;;;;;;34.93;16.57;;;;;;;-8.06;100.00;101505.25;5034138;28;20658;-61
2024/01/11 06:49:18;;;;;;;33.73;17.10;;;;;;;-8.08;100.00;101514.34;5036366;28;20259;-61
2024/01/11 06:51:43;;;;;;;32.10;17.17;;;;;;;-8.13;100.00;101514.13;5028814;28;20222;-61
2024/01/11 06:54:08;;;;;;;34.27;16.67;;;;;;;-8.17;100.00;101518.13;5039135;28;20204;-61
2024/01/11 06:56:34;;;;;;;31.13;15.40;;;;;;;-8.16;100.00;101517.34;5033955;28;20176;-61
2024/01/11 06:58:59;;;;;;;27.40;15.73;;;;;;;-8.18;100.00;101520.56;5033922;28;20278;-60
2024/01/11 07:01:25;;;;;;;31.47;15.97;;;;;;;-8.15;100.00;101515.69;5045518;28;20238;-61
2024/01/11 07:03:50;;;;;;;29.57;15.90;;;;;;;-8.18;100.00;101518.91;5043809;28;20191;-61
2024/01/11 07:06:16;;;;;;;30.27;14.87;;;;;;;-8.15;100.00;101518.19;5032753;28;20505;-61
2024/01/11 07:08:41;;;;;;;30.90;16.23;;;;;;;-8.11;100.00;101520.88;5032463;28;20290;-61
2024/01/11 07:11:07;;;;;;;29.70;16.10;;;;;;;-8.15;100.00;101521.56;5034030;28;20313;-61
2024/01/11 07:13:33;;;;;;;28.10;15.87;;;;;;;-8.11;100.00;101525.88;5047522;28;20188;-61
2024/01/11 07:15:58;;;;;;;30.73;16.30;;;;;;;-8.05;100.00;101527.81;5033819;28;20434;-60
2024/01/11 07:18:25;;;;;;;34.37;17.13;;;;;;;-8.00;100.00;101528.00;5015860;28;20179;-60
2024/01/11 07:20:51;;;;;;;30.90;15.77;;;;;;;-8.17;100.00;101525.59;5035891;28;20237;-60
2024/01/11 07:23:16;;;;;;;37.27;18.23;;;;;;;-8.27;100.00;101534.31;5041316;28;20851;-61
2024/01/11 07:25:41;;;;;;;35.13;16.77;;;;;;;-8.20;100.00;101537.94;5032231;28;20184;-61
2024/01/11 07:28:07;;;;;;;27.97;16.43;;;;;;;-8.14;100.00;101527.38;5033099;28;20192;-63
2024/01/11 07:30:33;;;;;;;29.40;16.00;;;;;;;-8.04;100.00;101526.16;5025892;28;20684;-61
2024/01/11 07:32:58;;;;;;;28.23;16.10;;;;;;;-8.03;100.00;101528.72;5043569;28;20176;-62
2024/01/11 07:35:23;;;;;;;24.70;15.17;;;;;;;-7.99;100.00;101529.72;5032012;28;20235;-62
2024/01/11 07:37:49;;;;;;;32.63;17.73;;;;;;;-7.96;100.00;101523.22;5032884;28;20181;-62
2024/01/11 07:40:16;;;;;;;29.27;14.90;;;;;;;-8.03;100.00;101525.38;5026195;28;20207;-62
2024/01/11 07:42:42;;;;;;;26.50;16.30;;;;;;;-7.94;100.00;101530.75;5060736;28;20447;-61
2024/01/11 07:45:09;;;;;;;28.40;15.93;;;;;;;-7.85;100.00;101533.69;5032902;28;20463;-63
2024/01/11 07:47:37;;;;;;;29.47;17.20;;;;;;;-7.82;100.00;101535.47;5031590;28;20431;-62
2024/01/11 07:50:03;;;;;;;31.37;17.10;;;;;;;-7.85;100.00;101540.31;5029265;28;20466;-63
2024/01/11 07:52:28;;;;;;;31.47;15.60;;;;;;;-7.80;100.00;101538.84;5061902;28;20435;-62
2024/01/11 07:54:54;;;;;;;32.73;16.73;;;;;;;-7.64;100.00;101538.75;5031160;28;20435;-63
2024/01/11 07:57:19;;;;;;;33.73;17.57;;;;;;;-7.58;100.00;101542.31;5032711;28;20192;-62
2024/01/11 07:59:44;;;;;;;27.70;16.10;;;;;;;-7.63;100.00;101544.59;5031479;28;20195;-63
2024/01/11 08:02:09;;;;;;;29.53;16.97;;;;;;;-7.53;100.00;101551.72;5039458;28;20231;-61
2024/01/11 08:04:35;;;;;;;31.97;16.33;;;;;;;-7.50;100.00;101551.84;5032409;28;20189;-62
2024/01/11 08:07:01;;;;;;;24.50;15.30;;;;;;;-7.47;100.00;101544.47;5031982;28;20184;-63
2024/01/11 08:09:27;;;;;;;35.03;17.03;;;;;;;-7.38;100.00;101546.50;5064080;28;20578;-62
2024/01/11 08:11:54;;;;;;;35.93;18.57;;;;;;;-7.32;100.00;101546.78;5050530;28;20474;-62
2024/01/11 08:14:19;;;;;;;32.40;16.87;;;;;;;-7.24;100.00;101543.72;5034712;28;20185;-61
2024/01/11 08:16:45;;;;;;;35.57;17.63;;;;;;;-7.28;100.00;101541.88;5030668;28;20845;-62
2024/01/11 08:19:10;;;;;;;34.30;17.50;;;;;;;-7.19;100.00;101540.63;5032352;28;20178;-63
2024/01/11 08:21:35;;;;;;;31.67;16.73;;;;;;;-7.10;100.00;101541.81;5046344;28;20232;-62
2024/01/11 08:24:02;;;;;;;32.90;18.40;;;;;;;-7.00;100.00;101536.38;5038647;28;20192;-63
2024/01/11 08:26:28;;;;;;;35.77;17.77;;;;;;;-6.89;100.00;101535.16;5030822;28;20186;-62
2024/01/11 08:28:53;;;;;;;32.67;18.13;;;;;;;-6.81;100.00;101527.94;5032008;28;20431;-61
2024/01/11 08:31:19;;;;;;;34.77;18.03;;;;;;;-6.72;100.00;101527.44;5011947;28;20603;-62
2024/01/11 08:33:44;;;;;;;35.67;17.70;;;;;;;-6.64;100.00;101528.59;5036226;28;20191;-61
2024/01/11 08:36:11;;;;;;;34.23;18.97;;;;;;;-6.55;100.00;101533.13;5030489;28;20209;-62
2024/01/11 08:38:36;;;;;;;32.70;17.70;;;;;;;-6.41;100.00;101532.00;5031978;28;20713;-62
2024/01/11 08:41:03;;;;;;;29.80;18.13;;;;;;;-6.34;100.00;101528.06;5031103;28;20474;-62
2024/01/11 08:43:28;;;;;;;33.87;18.40;;;;;;;-6.21;100.00;101536.91;5047183;28;20193;-62
2024/01/11 08:45:54;;;;;;;37.70;19.33;;;;;;;-6.10;100.00;101533.16;5031644;28;20475;-62
2024/01/11 08:48:19;;;;;;;32.80;18.03;;;;;;;-5.95;100.00;101536.97;5032071;28;20564;-61
2024/01/11 08:50:44;;;;;;;40.33;18.63;;;;;;;-5.76;100.00;101533.50;5024327;28;20359;-61
2024/01/11 08:53:10;;;;;;;32.63;18.63;;;;;;;-5.63;100.00;101537.28;5040503;28;20231;-62
2024/01/11 08:55:35;;;;;;;36.90;19.27;;;;;;;-5.46;100.00;101527.84;5031430;28;20708;-62
2024/01/11 08:58:00;;;;;;;35.27;19.27;;;;;;;-5.33;100.00;101524.94;5030317;28;20178;-62
2024/01/11 09:00:26;;;;;;;38.93;19.60;;;;;;;-5.22;100.00;101541.19;5027547;28;20234;-61
2024/01/11 09:02:51;;;;;;;34.90;20.77;;;;;;;-5.21;100.00;101549.56;5042225;28;20285;-62
2024/01/11 09:05:17;;;;;;;47.93;25.40;;;;;;;-4.97;100.00;101548.66;5031367;28;20478;-62
2024/01/11 09:07:42;;;;;;;39.50;22.33;;;;;;;-4.79;100.00;101554.28;5031407;28;20178;-63
2024/01/11 09:10:12;;;;;;;40.23;23.73;;;;;;;-4.14;100.00;101557.91;5022804;28;20202;-63
2024/01/11 09:12:37;;;;;;;37.87;21.20;;;;;;;-2.62;100.00;101552.66;5060370;28;20194;-62
2024/01/11 09:15:03;;;;;;;43.00;24.97;;;;;;;-0.90;100.00;101554.34;5030654;28;20541;-62
2024/01/11 09:17:28;;;;;;;35.87;20.70;;;;;;;0.94;100.00;101546.50;5063322;28;20569;-62
2024/01/11 09:19:54;;;;;;;35.90;19.90;;;;;;;2.79;93.13;101549.91;5031429;28;20213;-63
2024/01/11 09:22:19;;;;;;;29.77;18.93;;;;;;;4.27;69.49;101549.63;5052480;28;20226;-63
2024/01/11 09:24:44;;;;;;;30.80;20.60;;;;;;;4.53;62.73;101554.56;5030491;28;20193;-63
2024/01/11 09:27:10;;;;;;;31.23;20.73;;;;;;;5.94;57.19;101552.47;5031364;28;20234;-63
2024/01/11 09:29:35;;;;;;;29.87;21.40;;;;;;;6.83;51.79;101550.44;5029658;28;20198;-63
2024/01/11 09:32:00;;;;;;;32.50;23.03;;;;;;;7.37;48.88;101559.78;5050811;28;20212;-64
2024/01/11 09:34:26;;;;;;;29.03;21.77;;;;;;;8.08;46.97;101555.84;5031957;28;20532;-64
2024/01/11 09:36:52;;;;;;;28.37;20.83;;;;;;;8.68;44.21;101552.88;5030797;28;20178;-64
2024/01/11 09:39:17;;;;;;;30.50;22.87;;;;;;;8.47;44.09;101547.38;5029712;28;20182;-64
2024/01/11 09:41:52;;;;;;;32.83;22.60;;;;;;;8.83;42.72;101541.41;5047379;28;20580;-63
2024/01/11 09:44:18;;;;;;;28.27;21.53;;;;;;;9.12;41.77;101533.00;5033503;28;20209;-64
2024/01/11 09:46:43;;;;;;;29.87;22.57;;;;;;;9.75;40.95;101529.63;5030683;28;20583;-63
2024/01/11 09:49:10;;;;;;;30.03;22.23;;;;;;;9.39;39.90;101540.00;5034065;28;20177;-64
2024/01/11 09:51:39;;;;;;;28.13;22.10;;;;;;;9.91;40.18;101530.03;5023342;28;20232;-63
2024/01/11 09:54:05;;;;;;;29.90;22.33;;;;;;;9.82;39.94;101533.69;5032478;28;20214;-64
2024/01/11 09:56:31;;;;;;;28.83;22.80;;;;;;;9.26;40.20;101548.03;5031500;28;20182;-64
2024/01/11 09:58:57;;;;;;;27.17;22.60;;;;;;;8.76;41.24;101551.00;5029194;28;20182;-64
2024/01/11 10:01:24;;;;;;;32.47;23.27;;;;;;;8.92;40.36;101559.16;5041825;28;20281;-67
2024/01/11 10:03:49;;;;;;;29.97;23.60;;;;;;;9.88;39.54;101554.09;5040868;28;20189;-63
2024/01/11 10:06:15;;;;;;;28.37;23.33;;;;;;;10.74;37.92;101553.28;5029531;28;20232;-63
2024/01/11 10:08:40;;;;;;;29.60;23.23;;;;;;;10.89;37.21;101558.81;5029381;28;20178;-65
2024/01/11 10:11:06;;;;;;;29.20;23.70;;;;;;;9.83;37.67;101568.81;5037585;28;20262;-65
2024/01/11 10:13:32;;;;;;;27.93;23.20;;;;;;;7.53;41.92;101582.53;5036608;28;20186;-64
2024/01/11 10:16:08;;;;;;;31.23;24.57;;;;;;;6.19;44.25;101576.06;5030799;28;20174;-63
2024/01/11 10:18:33;;;;;;;32.10;24.53;;;;;;;4.25;48.45;101586.16;5028907;28;20185;-63
2024/01/11 10:20:58;;;;;;;33.97;24.47;;;;;;;2.62;54.04;101603.22;5052971;28;20236;-63
2024/01/11 10:23:24;;;;;;;36.87;24.93;;;;;;;1.15;61.88;101593.13;5020891;28;20193;-61
2024/01/11 10:25:49;;;;;;;36.50;24.30;;;;;;;0.39;71.57;101584.78;5062793;28;20539;-61
2024/01/11 10:28:15;;;;;;;32.33;22.63;;;;;;;0.14;79.04;101581.09;5030603;28;20668;-62
2024/01/11 10:30:40;;;;;;;38.90;23.93;;;;;;;-0.79;89.90;101581.44;5030650;28;20240;-62
2024/01/11 10:33:07;;;;;;;40.37;24.53;;;;;;;-1.18;96.76;101566.53;5039311;28;20178;-62
2024/01/11 10:35:33;;;;;;;36.07;23.30;;;;;;;-1.10;100.00;101559.06;5029177;28;20186;-62
2024/01/11 10:38:03;;;;;;;37.83;22.30;;;;;;;-0.98;100.00;101556.75;5029218;28;20231;-63
2024/01/11 10:40:28;;;;;;;38.27;22.13;;;;;;;-0.93;100.00;101539.16;5027437;28;20224;-63
2024/01/11 10:42:59;;;;;;;36.33;22.23;;;;;;;-1.03;100.00;101543.19;5053082;28;20231;-63
2024/01/11 10:45:25;;;;;;;39.93;22.37;;;;;;;-1.17;100.00;101545.47;5061203;28;20243;-63
2024/01/11 10:47:56;;;;;;;39.57;22.50;;;;;;;-1.30;100.00;101539.38;5025307;28;20187;-62
2024/01/11 10:50:23;;;;;;;37.30;22.93;;;;;;;-1.25;100.00;101531.88;5032050;28;20698;-62
2024/01/11 10:52:59;;;;;;;32.87;21.23;;;;;;;-1.29;100.00;101540.19;5045250;28;20200;-63
2024/01/11 10:55:25;;;;;;;35.33;20.17;;;;;;;-1.58;100.00;101537.16;5032638;28;20198;-63
2024/01/11 10:57:51;;;;;;;39.40;22.13;;;;;;;-1.55;100.00;101529.63;5032511;28;20181;-63